createdAt,value
2023-03-22T00:02:47.444Z,32.21
2023-03-22T00:06:47.399Z,32.93
2023-03-22T00:10:47.402Z,31.56
2023-03-22T00:14:47.461Z,27.98
2023-03-22T00:18:47.379Z,30.35
2023-03-22T00:22:47.390Z,30.31
2023-03-22T00:26:47.440Z,28.39
2023-03-22T00:30:47.365Z,29.13
2023-03-22T00:34:47.476Z,29.19
2023-03-22T00:38:47.400Z,27.94
2023-03-22T00:42:47.362Z,26.48
2023-03-22T00:46:47.345Z,26.88
2023-03-22T00:50:47.467Z,26.48
2023-03-22T00:54:47.379Z,29.75
2023-03-22T00:58:47.416Z,29.47
2023-03-22T01:02:47.533Z,29.33
2023-03-22T01:06:47.470Z,27.57
2023-03-22T01:10:47.485Z,27.78
2023-03-22T01:14:47.912Z,29.14
2023-03-22T01:18:47.562Z,28.22
2023-03-22T01:22:47.604Z,26.76
2023-03-22T01:26:47.664Z,28.23
2023-03-22T01:30:47.772Z,27.03
2023-03-22T01:34:47.715Z,30.39
2023-03-22T01:38:47.843Z,28.01
2023-03-22T01:42:48.024Z,30.84
2023-03-22T01:46:47.889Z,27.69
2023-03-22T01:50:48.439Z,25.00
2023-03-22T01:54:47.899Z,32.02
2023-03-22T01:58:47.953Z,29.30
2023-03-22T02:02:47.983Z,27.10
2023-03-22T02:06:48.921Z,28.06
2023-03-22T02:10:48.030Z,25.90
2023-03-22T02:14:48.052Z,25.88
2023-03-22T02:18:48.124Z,28.87
2023-03-22T02:22:48.257Z,25.69
2023-03-22T02:26:48.224Z,26.72
2023-03-22T02:30:48.363Z,26.94
2023-03-22T02:34:48.273Z,30.80
2023-03-22T02:38:48.344Z,28.47
2023-03-22T02:42:48.365Z,29.34
2023-03-22T02:46:48.530Z,29.53
2023-03-22T02:50:48.519Z,28.25
2023-03-22T02:54:48.541Z,25.00
2023-03-22T02:58:48.569Z,30.01
2023-03-22T03:02:48.626Z,27.47
2023-03-22T03:06:48.704Z,27.70
2023-03-22T03:10:48.731Z,28.43
2023-03-22T03:14:48.917Z,27.57
2023-03-22T03:18:48.928Z,28.13
2023-03-22T03:22:49.022Z,27.29
2023-03-22T03:26:49.079Z,30.02
2023-03-22T03:30:49.150Z,27.63
2023-03-22T03:34:49.174Z,27.22
2023-03-22T03:38:49.257Z,27.52
2023-03-22T03:42:49.375Z,28.97
2023-03-22T03:46:49.415Z,29.24
2023-03-22T03:50:49.484Z,27.53
2023-03-22T03:54:49.497Z,28.41
2023-03-22T03:58:49.577Z,27.26
2023-03-22T04:02:49.643Z,29.45
2023-03-22T04:06:49.784Z,27.08
2023-03-22T04:10:49.854Z,26.44
2023-03-22T04:14:49.970Z,25.00
2023-03-22T04:18:50.148Z,29.89
2023-03-22T04:22:50.079Z,30.75
2023-03-22T04:26:50.155Z,29.54
2023-03-22T04:30:50.347Z,31.77
2023-03-22T04:34:50.370Z,27.03
2023-03-22T04:38:50.421Z,26.94
2023-03-22T04:42:50.487Z,27.48
2023-03-22T04:46:50.677Z,26.80
2023-03-22T04:50:50.808Z,27.92
2023-03-22T04:54:50.909Z,28.22
2023-03-22T04:58:51.002Z,30.28
2023-03-22T05:02:51.140Z,26.63
2023-03-22T05:06:51.252Z,28.26
2023-03-22T05:10:51.328Z,28.34
2023-03-22T05:14:51.618Z,26.19
2023-03-22T05:18:51.552Z,27.78
2023-03-22T05:22:52.057Z,29.01
2023-03-22T05:26:51.926Z,25.17
2023-03-22T05:30:52.014Z,29.27
2023-03-22T05:34:52.138Z,29.66
2023-03-22T05:38:52.063Z,31.15
2023-03-22T05:42:52.135Z,32.76
2023-03-22T05:46:52.366Z,35.61
2023-03-22T05:50:52.272Z,37.22
2023-03-22T05:54:55.037Z,34.64
2023-03-22T05:58:52.225Z,35.39
2023-03-22T06:02:52.356Z,33.84
2023-03-22T06:06:52.064Z,34.60
2023-03-22T06:10:52.167Z,32.71
2023-03-22T06:14:52.040Z,31.66
2023-03-22T06:18:52.071Z,31.54
2023-03-22T06:22:52.002Z,31.83
2023-03-22T06:26:52.042Z,31.22
2023-03-22T06:30:55.979Z,31.13
2023-03-22T06:34:58.653Z,30.45
2023-03-22T06:38:55.135Z,68.41
2023-03-22T06:42:52.564Z,45.74
2023-03-22T06:46:51.815Z,41.01
2023-03-22T06:50:52.054Z,44.40
2023-03-22T06:59:10.747Z,25.00
2023-03-22T07:03:10.816Z,81.59
2023-03-22T07:15:48.282Z,25.00
2023-03-22T07:24:07.233Z,25.00
2023-03-22T07:28:07.117Z,25.00
2023-03-22T07:32:07.252Z,29.39
2023-03-22T07:36:07.302Z,36.02
2023-03-22T07:40:07.977Z,39.89
2023-03-22T07:44:17.655Z,47.97
2023-03-22T07:48:08.337Z,51.66
2023-03-22T07:52:10.879Z,85.04
2023-03-22T07:56:07.551Z,48.84
2023-03-22T08:00:07.556Z,28.73
2023-03-22T08:04:07.256Z,29.68
2023-03-22T08:08:07.186Z,36.64
2023-03-22T08:12:07.217Z,26.16
2023-03-22T08:16:07.214Z,32.38
2023-03-22T08:20:07.100Z,25.77
2023-03-22T08:24:07.451Z,36.97
2023-03-22T08:28:07.228Z,26.33
2023-03-22T08:32:07.257Z,38.30
2023-03-22T08:36:08.428Z,22.40
2023-03-22T08:40:07.581Z,47.80
2023-03-22T08:44:07.512Z,55.97
2023-03-22T08:48:08.479Z,34.47
2023-03-22T08:52:07.789Z,27.00
2023-03-22T08:56:07.944Z,27.59
2023-03-22T09:00:08.119Z,38.18
2023-03-22T09:04:10.534Z,28.29
2023-03-22T09:08:08.372Z,25.00
2023-03-22T09:12:08.164Z,36.59
2023-03-22T09:16:07.990Z,31.30
2023-03-22T09:20:12.702Z,45.03
2023-03-22T09:24:07.938Z,58.41
2023-03-22T09:28:10.955Z,55.32
2023-03-22T09:32:10.174Z,64.97
2023-03-22T09:36:07.757Z,41.57
2023-03-22T09:40:11.282Z,58.77
2023-03-22T09:44:08.040Z,57.22
2023-03-22T09:48:08.129Z,72.33
2023-03-22T09:52:08.054Z,81.88
2023-03-22T09:56:07.714Z,95.42
2023-03-22T10:00:08.517Z,114.84
2023-03-22T10:04:08.108Z,109.89
2023-03-22T10:08:07.643Z,109.86
2023-03-22T10:12:07.478Z,119.24
2023-03-22T10:16:07.510Z,106.33
2023-03-22T10:20:07.497Z,120.36
2023-03-22T10:24:07.334Z,144.49
2023-03-22T10:28:07.404Z,157.33
2023-03-22T10:32:07.257Z,168.53
2023-03-22T10:36:07.327Z,169.35
2023-03-22T10:40:07.445Z,133.83
2023-03-22T10:44:07.432Z,65.73
2023-03-22T10:48:07.732Z,43.29
2023-03-22T10:52:08.474Z,25.00
2023-03-22T10:56:08.786Z,14.43
2023-03-22T11:00:08.175Z,33.65
2023-03-22T11:04:08.306Z,43.88
2023-03-22T11:08:08.286Z,38.72
2023-03-22T11:12:08.264Z,45.95
2023-03-22T11:16:08.261Z,37.21
2023-03-22T11:20:08.206Z,60.36
2023-03-22T11:24:09.150Z,45.10
2023-03-22T11:28:08.408Z,63.81
2023-03-22T11:32:08.632Z,57.36
2023-03-22T11:36:08.151Z,59.50
2023-03-22T11:40:08.058Z,65.34
2023-03-22T11:44:07.959Z,69.52
2023-03-22T11:48:08.360Z,102.99
2023-03-22T11:52:08.067Z,42.00
2023-03-22T11:56:08.054Z,66.76
2023-03-22T12:00:08.151Z,50.63
2023-03-22T12:04:08.076Z,7.07
2023-03-22T12:08:08.166Z,70.51
2023-03-22T12:12:07.839Z,46.88
2023-03-22T12:16:07.983Z,79.21
2023-03-22T12:20:08.080Z,145.16
2023-03-22T12:24:07.827Z,195.71
2023-03-22T12:28:07.743Z,221.79
2023-03-22T12:32:07.743Z,237.56
2023-03-22T12:36:08.456Z,248.98
2023-03-22T12:40:07.655Z,246.21
2023-03-22T12:44:07.926Z,248.52
2023-03-22T12:48:08.036Z,250.00
2023-03-22T12:52:07.769Z,249.31
2023-03-22T12:56:07.749Z,250.00
2023-03-22T13:00:07.670Z,250.00
2023-03-22T13:04:07.702Z,248.63
2023-03-22T13:08:07.552Z,249.30
2023-03-22T13:12:08.026Z,246.91
2023-03-22T13:16:09.485Z,250.00
2023-03-22T13:20:07.690Z,247.00
2023-03-22T13:24:07.585Z,247.52
2023-03-22T13:28:07.607Z,246.98
2023-03-22T13:32:07.694Z,249.35
2023-03-22T13:36:07.584Z,248.76
2023-03-22T13:40:07.492Z,247.78
2023-03-22T13:44:07.438Z,247.73
2023-03-22T13:48:07.627Z,245.74
2023-03-22T13:52:07.350Z,248.77
2023-03-22T13:56:07.383Z,247.11
2023-03-22T14:00:12.116Z,247.75
2023-03-22T14:04:08.695Z,247.20
2023-03-22T14:08:07.388Z,247.26
2023-03-22T14:12:07.508Z,244.87
2023-03-22T14:16:08.172Z,244.37
2023-03-22T14:20:08.020Z,245.69
2023-03-22T14:49:09.118Z,25.00
2023-03-22T14:53:09.372Z,25.68
2023-03-22T14:57:09.631Z,28.53
2023-03-22T15:01:09.758Z,29.63
2023-03-22T15:05:10.008Z,28.26
2023-03-22T15:09:10.173Z,29.20
2023-03-22T15:13:10.211Z,29.17
2023-03-22T15:17:10.245Z,26.81
2023-03-22T15:21:10.123Z,27.44
2023-03-22T15:25:10.077Z,30.57
2023-03-22T15:29:09.996Z,32.08
2023-03-22T15:33:09.965Z,28.49
2023-03-22T15:37:09.992Z,32.25
2023-03-22T15:41:09.984Z,51.00
2023-03-22T15:45:10.040Z,57.26
2023-03-22T15:49:09.904Z,60.81
2023-03-22T15:53:09.885Z,62.38
2023-03-22T15:57:09.871Z,65.91
2023-03-22T16:01:09.835Z,67.42
2023-03-22T16:05:09.723Z,66.84
2023-03-22T16:09:09.713Z,64.47
2023-03-22T16:13:09.742Z,64.10
2023-03-22T16:17:09.634Z,67.80
2023-03-22T16:21:09.562Z,67.63
2023-03-22T16:25:09.527Z,69.53
2023-03-22T16:29:09.673Z,68.82
2023-03-22T16:33:09.650Z,70.84
2023-03-22T16:37:09.599Z,71.32
2023-03-22T16:41:09.527Z,70.99
2023-03-22T16:45:09.521Z,71.23
2023-03-22T16:49:09.469Z,70.46
2023-03-22T16:53:09.493Z,74.54
2023-03-22T16:57:09.446Z,70.22
2023-03-22T17:01:09.366Z,69.84
2023-03-22T17:05:09.359Z,64.91
2023-03-22T17:09:09.296Z,67.64
2023-03-22T17:13:09.277Z,65.09
2023-03-22T17:17:09.271Z,63.69
2023-03-22T17:21:09.313Z,63.50
2023-03-22T17:25:09.384Z,60.08
2023-03-22T17:29:09.416Z,60.42
2023-03-22T17:33:09.794Z,59.32
2023-03-22T17:37:09.417Z,56.07
2023-03-22T17:41:09.448Z,56.47
2023-03-22T17:45:10.016Z,58.35
2023-03-22T17:49:09.376Z,50.85
2023-03-22T17:53:23.107Z,50.90
2023-03-22T17:57:36.286Z,51.32
2023-03-22T18:01:10.473Z,48.00
2023-03-22T18:05:09.268Z,50.29
2023-03-22T18:09:09.240Z,47.29
2023-03-22T18:13:09.199Z,46.46
2023-03-22T18:17:09.242Z,48.27
2023-03-22T18:21:09.101Z,46.29
2023-03-22T18:25:09.063Z,47.06
2023-03-22T18:29:09.027Z,44.73
2023-03-22T18:33:09.034Z,38.55
2023-03-22T18:37:09.028Z,40.09
2023-03-22T18:41:34.486Z,33.67
2023-03-22T18:45:10.602Z,37.03
2023-03-22T18:49:08.894Z,38.18
2023-03-22T18:53:18.438Z,34.85
2023-03-22T18:57:10.813Z,34.85
2023-03-22T19:01:08.766Z,30.72
2023-03-22T19:05:08.680Z,29.37
2023-03-22T19:09:08.653Z,26.10
2023-03-22T19:13:08.630Z,27.67
2023-03-22T19:17:08.719Z,29.60
2023-03-22T19:21:13.393Z,28.20
2023-03-22T19:25:09.722Z,29.11
2023-03-22T19:29:08.727Z,25.61
2023-03-22T19:33:27.686Z,27.91
2023-03-22T19:37:09.639Z,22.28
2023-03-22T19:41:40.557Z,26.86
2023-03-22T19:45:09.558Z,27.08
2023-03-22T19:49:08.551Z,28.12
2023-03-22T19:53:38.698Z,25.36
2023-03-22T19:57:09.442Z,24.10
2023-03-22T20:01:08.464Z,29.88
2023-03-22T20:05:16.374Z,26.69
2023-03-22T20:09:09.307Z,25.16
2023-03-22T20:13:08.375Z,26.48
2023-03-22T20:17:10.524Z,26.52
2023-03-22T20:21:08.205Z,26.92
2023-03-22T20:25:08.181Z,29.60
2023-03-22T20:29:08.152Z,32.83
2023-03-22T20:33:08.101Z,33.93
2023-03-22T20:37:08.098Z,36.21
2023-03-22T20:41:08.067Z,39.09
2023-03-22T20:45:08.080Z,38.53
2023-03-22T20:49:08.214Z,43.22
2023-03-22T20:53:08.337Z,41.87
2023-03-22T20:57:08.468Z,42.27
2023-03-22T21:01:08.655Z,42.68
2023-03-22T21:05:08.722Z,45.70
2023-03-22T21:09:08.832Z,42.88
2023-03-22T21:13:08.972Z,43.11
2023-03-22T21:17:09.083Z,43.49
2023-03-22T21:21:09.228Z,47.39
2023-03-22T21:25:09.351Z,44.09
2023-03-22T21:29:09.598Z,44.36
2023-03-22T21:33:09.657Z,45.74
2023-03-22T21:37:09.840Z,45.56
2023-03-22T21:41:10.014Z,44.00
2023-03-22T21:45:10.092Z,41.45
2023-03-22T21:49:10.305Z,44.48
2023-03-22T21:53:10.387Z,45.54
2023-03-22T21:57:10.551Z,42.67
2023-03-22T22:01:10.792Z,42.26
2023-03-22T22:05:10.915Z,41.00
2023-03-22T22:09:11.101Z,44.13
2023-03-22T22:13:11.254Z,42.82
2023-03-22T22:17:11.433Z,44.77
2023-03-22T22:21:11.574Z,41.94
2023-03-22T22:25:11.760Z,46.01
2023-03-22T22:29:11.926Z,43.65
2023-03-22T22:33:12.106Z,46.38
2023-03-22T22:37:12.599Z,41.62
2023-03-22T22:41:12.494Z,45.10
2023-03-22T22:45:12.647Z,43.72
2023-03-22T22:49:12.615Z,41.96
2023-03-22T22:53:12.549Z,42.30
2023-03-22T22:57:12.699Z,41.10
2023-03-22T23:01:12.855Z,44.13
2023-03-22T23:05:13.093Z,44.12
2023-03-22T23:09:13.233Z,46.25
2023-03-22T23:13:13.449Z,45.08
2023-03-22T23:17:13.709Z,42.33
2023-03-22T23:21:13.855Z,43.54
2023-03-22T23:25:14.063Z,42.63
2023-03-22T23:29:14.271Z,42.47
2023-03-22T23:33:14.448Z,42.47
2023-03-22T23:37:14.695Z,42.53
2023-03-22T23:41:14.900Z,39.77
2023-03-22T23:45:14.903Z,42.97
2023-03-22T23:49:14.846Z,42.24
2023-03-22T23:53:14.791Z,40.44
2023-03-22T23:57:14.758Z,42.13
